Airfield :
LOGIN :

Register | Disclaimer

   EN    FR    IT 

 










Legend :    VFR   Marginal VFR   IFR   Intensive IFR   Very Intensive IFR
Visi :
Ceiling :
>= 8 km
>= 3000ft
5 to 8 km
1000 to 3000 ft
1500m to 5 km
500 to 1000 ft
800 to 1500m
200 to 500 ft
< 800m
< 200 ft
Symbols :   Thunderstorms  Fog  Heavy snow  Heavy precipitations  Wind > 20 kt
SIGMETs :     Misc.  Thunderstorms  Icing  Turbulence  Mountain Waves  Volcanic Ashes






- Airport Elevation : 238 ft
- IATA code : FAB


EGLF - Farnborough

CURRENT METAR :
  • 201420Z AUTO 19013KT 9999 FEW019/// 17/13 Q1001

EXPIRED METARs :
  • 201350Z AUTO 19014G28KT 160V220 9999 FEW020/// SCT026/// 17/13 Q1001
  • 201320Z AUTO 19015G26KT 160V220 9999 FEW021/// BKN035/// 17/13 Q1001
  • 201250Z AUTO 19015KT 9999 FEW018/// BKN037/// 16/13 Q1001
  • 201220Z AUTO 18016KT 9999 FEW019/// SCT028/// 17/13 Q1001
  • 201150Z AUTO 20015KT 9999 FEW019/// 17/13 Q1001

TAF TAF EGLF
Valid from the 20 at 15:00 until the 20 at 23:00 UTC


201400Z 2015/2023 18012KT 9999 SCT030
PROB40
TEMPO 2020/2023 BKN008
ATIS : +44 09063 800 400 (*282)



MET'MAP, your aeronautical weather chart ! - Copyright ORBIFLY December 2007 - Disclaimer

ORBIFLY MET'MAP TEAM :

Programming & Development : Alexandra Zaïnal
Concept & original design : Baudouin d'Aumeries
Assistance for programming : Marc-Olivier Méhu
Technical & hardware support : Manuel Goepfert

Contact : metmap@orbifly.com




SOURCES & CREDITS :

   NOAA